sensor_id;sensor_type;location;lat;lon;timestamp;pressure;altitude;pressure_sealevel;temperature;humidity
71457;BME280;59263;48.160;11.752;2022-08-25T00:00:27;96026.72;;;16.20;100.00
71457;BME280;59263;48.160;11.752;2022-08-25T00:02:54;96011.88;;;16.21;100.00
71457;BME280;59263;48.160;11.752;2022-08-25T00:05:20;96014.97;;;16.16;100.00
71457;BME280;59263;48.160;11.752;2022-08-25T00:07:45;96012.25;;;16.10;100.00
71457;BME280;59263;48.160;11.752;2022-08-25T00:10:10;96005.91;;;16.04;100.00
71457;BME280;59263;48.160;11.752;2022-08-25T00:12:36;96011.13;;;16.04;100.00
71457;BME280;59263;48.160;11.752;2022-08-25T00:15:01;96009.69;;;16.02;100.00
71457;BME280;59263;48.160;11.752;2022-08-25T00:17:27;96006.09;;;16.03;100.00
71457;BME280;59263;48.160;11.752;2022-08-25T00:19:52;96000.22;;;16.01;100.00
71457;BME280;59263;48.160;11.752;2022-08-25T00:22:18;95999.41;;;16.00;100.00
71457;BME280;59263;48.160;11.752;2022-08-25T00:24:43;96001.84;;;16.02;100.00
71457;BME280;59263;48.160;11.752;2022-08-25T00:27:08;95996.16;;;15.98;100.00
71457;BME280;59263;48.160;11.752;2022-08-25T00:29:36;96003.97;;;15.98;100.00
71457;BME280;59263;48.160;11.752;2022-08-25T00:32:03;96005.31;;;15.94;100.00
71457;BME280;59263;48.160;11.752;2022-08-25T00:34:33;96002.22;;;15.90;100.00
71457;BME280;59263;48.160;11.752;2022-08-25T00:36:59;96000.00;;;15.87;100.00
71457;BME280;59263;48.160;11.752;2022-08-25T00:39:26;96001.13;;;15.85;100.00
71457;BME280;59263;48.160;11.752;2022-08-25T00:41:53;96002.47;;;15.81;100.00
71457;BME280;59263;48.160;11.752;2022-08-25T00:44:22;96004.13;;;15.73;100.00
71457;BME280;59263;48.160;11.752;2022-08-25T00:46:50;95989.16;;;15.67;100.00
71457;BME280;59263;48.160;11.752;2022-08-25T00:49:22;95991.75;;;15.59;100.00
71457;BME280;59263;48.160;11.752;2022-08-25T00:51:59;95992.09;;;15.56;100.00
71457;BME280;59263;48.160;11.752;2022-08-25T00:54:36;95983.66;;;15.54;100.00
71457;BME280;59263;48.160;11.752;2022-08-25T00:57:04;95979.75;;;15.50;100.00
71457;BME280;59263;48.160;11.752;2022-08-25T00:59:30;95989.19;;;15.51;100.00
71457;BME280;59263;48.160;11.752;2022-08-25T01:01:56;95987.91;;;15.47;100.00
71457;BME280;59263;48.160;11.752;2022-08-25T01:04:23;95999.31;;;15.46;100.00
71457;BME280;59263;48.160;11.752;2022-08-25T01:06:50;96000.63;;;15.50;100.00
71457;BME280;59263;48.160;11.752;2022-08-25T01:09:15;95994.75;;;15.48;100.00
71457;BME280;59263;48.160;11.752;2022-08-25T01:11:42;95993.78;;;15.41;100.00
71457;BME280;59263;48.160;11.752;2022-08-25T01:14:11;95989.25;;;15.35;100.00
71457;BME280;59263;48.160;11.752;2022-08-25T01:16:39;95988.75;;;15.31;100.00
71457;BME280;59263;48.160;11.752;2022-08-25T01:19:07;95979.66;;;15.35;100.00
71457;BME280;59263;48.160;11.752;2022-08-25T01:21:38;95984.03;;;15.35;100.00
71457;BME280;59263;48.160;11.752;2022-08-25T01:24:04;95982.25;;;15.35;100.00
71457;BME280;59263;48.160;11.752;2022-08-25T01:26:32;95976.38;;;15.33;100.00
71457;BME280;59263;48.160;11.752;2022-08-25T01:29:00;95973.78;;;15.33;100.00
71457;BME280;59263;48.160;11.752;2022-08-25T01:31:48;95976.25;;;15.27;100.00
71457;BME280;59263;48.160;11.752;2022-08-25T01:34:18;95979.53;;;15.20;100.00
71457;BME280;59263;48.160;11.752;2022-08-25T01:36:44;95972.84;;;15.18;100.00
71457;BME280;59263;48.160;11.752;2022-08-25T01:39:10;95980.50;;;15.19;100.00
71457;BME280;59263;48.160;11.752;2022-08-25T01:41:49;95975.28;;;15.19;100.00
71457;BME280;59263;48.160;11.752;2022-08-25T01:44:18;95968.44;;;15.18;100.00
71457;BME280;59263;48.160;11.752;2022-08-25T01:46:43;95971.34;;;15.23;100.00
71457;BME280;59263;48.160;11.752;2022-08-25T01:49:09;95983.06;;;15.28;100.00
71457;BME280;59263;48.160;11.752;2022-08-25T01:51:42;95975.25;;;15.28;100.00
71457;BME280;59263;48.160;11.752;2022-08-25T01:54:07;95981.44;;;15.27;100.00
71457;BME280;59263;48.160;11.752;2022-08-25T01:56:33;95978.22;;;15.24;100.00
71457;BME280;59263;48.160;11.752;2022-08-25T01:58:58;95975.28;;;15.19;100.00
71457;BME280;59263;48.160;11.752;2022-08-25T02:01:24;95973.19;;;15.15;100.00
71457;BME280;59263;48.160;11.752;2022-08-25T02:03:53;95982.47;;;15.17;100.00
71457;BME280;59263;48.160;11.752;2022-08-25T02:06:29;95975.97;;;15.13;100.00
71457;BME280;59263;48.160;11.752;2022-08-25T02:08:59;95988.31;;;15.19;100.00
71457;BME280;59263;48.160;11.752;2022-08-25T02:11:25;95983.09;;;15.19;100.00
71457;BME280;59263;48.160;11.752;2022-08-25T02:13:51;95975.97;;;15.13;100.00
71457;BME280;59263;48.160;11.752;2022-08-25T02:16:21;95979.88;;;15.17;100.00
71457;BME280;59263;48.160;11.752;2022-08-25T02:18:47;95976.94;;;15.20;100.00
71457;BME280;59263;48.160;11.752;2022-08-25T02:21:13;95962.44;;;15.18;100.00
71457;BME280;59263;48.160;11.752;2022-08-25T02:23:39;95964.53;;;15.22;100.00
71457;BME280;59263;48.160;11.752;2022-08-25T02:26:05;95973.00;;;15.24;100.00
71457;BME280;59263;48.160;11.752;2022-08-25T02:28:31;95979.50;;;15.29;100.00
71457;BME280;59263;48.160;11.752;2022-08-25T02:30:56;95972.00;;;15.25;100.00
71457;BME280;59263;48.160;11.752;2022-08-25T02:33:21;95983.06;;;15.28;100.00
71457;BME280;59263;48.160;11.752;2022-08-25T02:35:47;95961.28;;;15.20;100.00
71457;BME280;59263;48.160;11.752;2022-08-25T02:38:12;95959.63;;;15.19;100.00
71457;BME280;59263;48.160;11.752;2022-08-25T02:40:38;95969.75;;;15.22;100.00
71457;BME280;59263;48.160;11.752;2022-08-25T02:43:03;95967.13;;;15.22;100.00
71457;BME280;59263;48.160;11.752;2022-08-25T02:45:30;95962.56;;;15.24;100.00
71457;BME280;59263;48.160;11.752;2022-08-25T02:47:55;95966.50;;;15.20;100.00
71457;BME280;59263;48.160;11.752;2022-08-25T02:50:21;95960.97;;;15.15;100.00
71457;BME280;59263;48.160;11.752;2022-08-25T02:52:46;95960.81;;;15.09;100.00
71457;BME280;59263;48.160;11.752;2022-08-25T02:55:15;95956.44;;;15.09;100.00
71457;BME280;59263;48.160;11.752;2022-08-25T02:57:41;95961.97;;;14.98;100.00
71457;BME280;59263;48.160;11.752;2022-08-25T03:00:12;95954.66;;;14.93;100.00
71457;BME280;59263;48.160;11.752;2022-08-25T03:02:38;95955.16;;;14.97;100.00
71457;BME280;59263;48.160;11.752;2022-08-25T03:05:06;95954.66;;;14.93;100.00
71457;BME280;59263;48.160;11.752;2022-08-25T03:07:32;95957.44;;;14.92;100.00
71457;BME280;59263;48.160;11.752;2022-08-25T03:09:58;95953.38;;;14.89;100.00
71457;BME280;59263;48.160;11.752;2022-08-25T03:12:23;95950.13;;;14.87;100.00
71457;BME280;59263;48.160;11.752;2022-08-25T03:14:49;95955.69;;;14.84;100.00
71457;BME280;59263;48.160;11.752;2022-08-25T03:17:14;95953.22;;;14.83;100.00
71457;BME280;59263;48.160;11.752;2022-08-25T03:19:39;95952.72;;;14.79;100.00
71457;BME280;59263;48.160;11.752;2022-08-25T03:22:05;95960.06;;;14.75;100.00
71457;BME280;59263;48.160;11.752;2022-08-25T03:24:31;95955.34;;;14.71;100.00
71457;BME280;59263;48.160;11.752;2022-08-25T03:26:56;95956.53;;;14.68;100.00
71457;BME280;59263;48.160;11.752;2022-08-25T03:29:23;95958.13;;;14.69;100.00
71457;BME280;59263;48.160;11.752;2022-08-25T03:31:49;95950.16;;;14.71;100.00
71457;BME280;59263;48.160;11.752;2022-08-25T03:34:17;95956.66;;;14.75;100.00
71457;BME280;59263;48.160;11.752;2022-08-25T03:36:44;95952.72;;;14.79;100.00
71457;BME280;59263;48.160;11.752;2022-08-25T03:39:10;95950.31;;;14.77;100.00
71457;BME280;59263;48.160;11.752;2022-08-25T03:41:36;95949.31;;;14.79;100.00
71457;BME280;59263;48.160;11.752;2022-08-25T03:44:03;95948.38;;;14.80;100.00
71457;BME280;59263;48.160;11.752;2022-08-25T03:46:33;95946.72;;;14.79;100.00
71457;BME280;59263;48.160;11.752;2022-08-25T03:49:01;95945.91;;;14.78;100.00
71457;BME280;59263;48.160;11.752;2022-08-25T03:51:40;95949.97;;;14.81;100.00
71457;BME280;59263;48.160;11.752;2022-08-25T03:54:07;95942.78;;;14.83;100.00
71457;BME280;59263;48.160;11.752;2022-08-25T03:56:33;95939.56;;;14.81;100.00
71457;BME280;59263;48.160;11.752;2022-08-25T03:58:58;95947.53;;;14.79;100.00
71457;BME280;59263;48.160;11.752;2022-08-25T04:01:24;95953.56;;;14.80;100.00
71457;BME280;59263;48.160;11.752;2022-08-25T04:03:51;95951.94;;;14.79;100.00
71457;BME280;59263;48.160;11.752;2022-08-25T04:06:18;95946.09;;;14.76;100.00
71457;BME280;59263;48.160;11.752;2022-08-25T04:08:44;95947.69;;;14.77;100.00
71457;BME280;59263;48.160;11.752;2022-08-25T04:11:17;95939.88;;;14.77;100.00
71457;BME280;59263;48.160;11.752;2022-08-25T04:13:44;95941.50;;;14.79;100.00
71457;BME280;59263;48.160;11.752;2022-08-25T04:16:12;95943.47;;;14.76;100.00
71457;BME280;59263;48.160;11.752;2022-08-25T04:18:39;95943.47;;;14.76;100.00
71457;BME280;59263;48.160;11.752;2022-08-25T04:21:06;95947.03;;;14.75;100.00
71457;BME280;59263;48.160;11.752;2022-08-25T04:23:33;95950.63;;;14.74;100.00
71457;BME280;59263;48.160;11.752;2022-08-25T04:25:59;95944.13;;;14.70;100.00
71457;BME280;59263;48.160;11.752;2022-08-25T04:28:24;95948.34;;;14.71;100.00
71457;BME280;59263;48.160;11.752;2022-08-25T04:30:49;95951.31;;;14.68;100.00
71457;BME280;59263;48.160;11.752;2022-08-25T04:33:15;95944.47;;;14.67;100.00
71457;BME280;59263;48.160;11.752;2022-08-25T04:35:45;95946.09;;;14.68;100.00
71457;BME280;59263;48.160;11.752;2022-08-25T04:38:11;95949.53;;;14.69;100.00
71457;BME280;59263;48.160;11.752;2022-08-25T04:40:36;95951.63;;;14.65;100.00
71457;BME280;59263;48.160;11.752;2022-08-25T04:43:01;95953.44;;;14.65;100.00
71457;BME280;59263;48.160;11.752;2022-08-25T04:45:27;95947.75;;;14.61;100.00
71457;BME280;59263;48.160;11.752;2022-08-25T04:47:53;95944.78;;;14.56;100.00
71457;BME280;59263;48.160;11.752;2022-08-25T04:50:19;95963.03;;;14.56;100.00
71457;BME280;59263;48.160;11.752;2022-08-25T04:52:44;95955.56;;;14.61;100.00
71457;BME280;59263;48.160;11.752;2022-08-25T04:55:10;95958.78;;;14.63;100.00
71457;BME280;59263;48.160;11.752;2022-08-25T04:57:35;95943.16;;;14.63;100.00
71457;BME280;59263;48.160;11.752;2022-08-25T05:00:02;95946.09;;;14.68;100.00
71457;BME280;59263;48.160;11.752;2022-08-25T05:02:28;95945.09;;;14.77;100.00
71457;BME280;59263;48.160;11.752;2022-08-25T05:04:53;95948.50;;;14.86;100.00
71457;BME280;59263;48.160;11.752;2022-08-25T05:07:19;95945.41;;;14.91;100.00
71457;BME280;59263;48.160;11.752;2022-08-25T05:09:44;95954.00;;;14.99;100.00
71457;BME280;59263;48.160;11.752;2022-08-25T05:12:10;95949.91;;;15.13;100.00
71457;BME280;59263;48.160;11.752;2022-08-25T05:14:35;95940.75;;;15.17;100.00
71457;BME280;59263;48.160;11.752;2022-08-25T05:17:00;95941.34;;;15.28;100.00
71457;BME280;59263;48.160;11.752;2022-08-25T05:19:26;95944.91;;;15.35;100.00
71457;BME280;59263;48.160;11.752;2022-08-25T05:21:52;95948.13;;;15.45;100.00
71457;BME280;59263;48.160;11.752;2022-08-25T05:24:18;95953.97;;;15.55;100.00
71457;BME280;59263;48.160;11.752;2022-08-25T05:26:44;95951.81;;;15.67;100.00
71457;BME280;59263;48.160;11.752;2022-08-25T05:29:10;95948.34;;;15.75;100.00
71457;BME280;59263;48.160;11.752;2022-08-25T05:31:35;95948.94;;;15.85;100.00
71457;BME280;59263;48.160;11.752;2022-08-25T05:34:05;95944.25;;;16.03;100.00
71457;BME280;59263;48.160;11.752;2022-08-25T05:36:30;95941.41;;;16.13;100.00
71457;BME280;59263;48.160;11.752;2022-08-25T05:38:56;95941.88;;;16.16;100.00
71457;BME280;59263;48.160;11.752;2022-08-25T05:41:26;95933.63;;;16.28;100.00
71457;BME280;59263;48.160;11.752;2022-08-25T05:43:52;95938.28;;;16.40;100.00
71457;BME280;59263;48.160;11.752;2022-08-25T05:46:18;95938.53;;;16.45;100.00
71457;BME280;59263;48.160;11.752;2022-08-25T05:48:44;95921.97;;;16.53;100.00
71457;BME280;59263;48.160;11.752;2022-08-25T05:51:10;95930.66;;;16.68;100.00
71457;BME280;59263;48.160;11.752;2022-08-25T05:53:38;95927.88;;;16.70;100.00
71457;BME280;59263;48.160;11.752;2022-08-25T05:56:04;95934.50;;;16.81;100.00
71457;BME280;59263;48.160;11.752;2022-08-25T05:58:29;95934.31;;;16.82;100.00
71457;BME280;59263;48.160;11.752;2022-08-25T06:00:56;95932.72;;;16.96;100.00
71457;BME280;59263;48.160;11.752;2022-08-25T06:03:22;95936.03;;;17.05;100.00
71457;BME280;59263;48.160;11.752;2022-08-25T06:05:48;95932.72;;;17.11;100.00
71457;BME280;59263;48.160;11.752;2022-08-25T06:08:13;95925.31;;;17.14;100.00
71457;BME280;59263;48.160;11.752;2022-08-25T06:10:40;95931.09;;;17.25;100.00
71457;BME280;59263;48.160;11.752;2022-08-25T06:13:05;95919.34;;;17.50;100.00
71457;BME280;59263;48.160;11.752;2022-08-25T06:15:30;95921.84;;;17.58;100.00
71457;BME280;59263;48.160;11.752;2022-08-25T06:17:56;95922.72;;;17.65;100.00
71457;BME280;59263;48.160;11.752;2022-08-25T06:20:25;95924.34;;;17.66;100.00
71457;BME280;59263;48.160;11.752;2022-08-25T06:22:51;95913.16;;;17.73;100.00
71457;BME280;59263;48.160;11.752;2022-08-25T06:25:20;95906.75;;;17.75;100.00
71457;BME280;59263;48.160;11.752;2022-08-25T06:27:46;95911.31;;;17.88;100.00
71457;BME280;59263;48.160;11.752;2022-08-25T06:30:14;95913.81;;;17.96;100.00
71457;BME280;59263;48.160;11.752;2022-08-25T06:32:40;95909.06;;;18.06;100.00
71457;BME280;59263;48.160;11.752;2022-08-25T06:35:08;95903.44;;;18.09;100.00
71457;BME280;59263;48.160;11.752;2022-08-25T06:37:34;95915.19;;;18.13;100.00
71457;BME280;59263;48.160;11.752;2022-08-25T06:40:00;95912.00;;;18.18;100.00
71457;BME280;59263;48.160;11.752;2022-08-25T06:42:26;95914.47;;;18.26;100.00
71457;BME280;59263;48.160;11.752;2022-08-25T06:44:51;95915.78;;;18.37;100.00
71457;BME280;59263;48.160;11.752;2022-08-25T06:47:17;95925.38;;;18.51;100.00
71457;BME280;59263;48.160;11.752;2022-08-25T06:49:43;95924.84;;;18.62;100.00
71457;BME280;59263;48.160;11.752;2022-08-25T06:52:09;95923.72;;;18.72;100.00
71457;BME280;59263;48.160;11.752;2022-08-25T06:54:35;95931.84;;;18.77;100.00
71457;BME280;59263;48.160;11.752;2022-08-25T06:57:01;95927.25;;;18.85;100.00
71457;BME280;59263;48.160;11.752;2022-08-25T06:59:26;95930.78;;;18.99;99.96
71457;BME280;59263;48.160;11.752;2022-08-25T07:01:52;95933.66;;;19.11;99.03
71457;BME280;59263;48.160;11.752;2022-08-25T07:04:17;95926.78;;;19.03;100.00
71457;BME280;59263;48.160;11.752;2022-08-25T07:06:43;95935.28;;;19.12;100.00
71457;BME280;59263;48.160;11.752;2022-08-25T07:09:10;95930.47;;;19.16;100.00
71457;BME280;59263;48.160;11.752;2022-08-25T07:11:37;95930.09;;;19.19;98.62
71457;BME280;59263;48.160;11.752;2022-08-25T07:14:05;95923.94;;;19.40;97.10
71457;BME280;59263;48.160;11.752;2022-08-25T07:16:31;95922.53;;;19.50;96.07
71457;BME280;59263;48.160;11.752;2022-08-25T07:18:58;95921.81;;;19.63;96.68
71457;BME280;59263;48.160;11.752;2022-08-25T07:21:24;95923.50;;;19.84;92.04
71457;BME280;59263;48.160;11.752;2022-08-25T07:23:50;95920.69;;;19.86;90.47
71457;BME280;59263;48.160;11.752;2022-08-25T07:26:22;95918.09;;;20.05;88.64
71457;BME280;59263;48.160;11.752;2022-08-25T07:28:48;95927.81;;;20.12;88.46
71457;BME280;59263;48.160;11.752;2022-08-25T07:31:14;95927.59;;;20.20;89.88
71457;BME280;59263;48.160;11.752;2022-08-25T07:33:39;95925.41;;;20.30;86.86
71457;BME280;59263;48.160;11.752;2022-08-25T07:36:28;95923.59;;;20.37;87.67
71457;BME280;59263;48.160;11.752;2022-08-25T07:38:55;95925.44;;;20.57;87.04
71457;BME280;59263;48.160;11.752;2022-08-25T07:41:20;95922.00;;;20.49;87.74
71457;BME280;59263;48.160;11.752;2022-08-25T07:43:46;95920.34;;;20.48;87.81
71457;BME280;59263;48.160;11.752;2022-08-25T07:46:11;95924.41;;;20.44;89.42
71457;BME280;59263;48.160;11.752;2022-08-25T07:48:37;95924.41;;;20.58;86.83
71457;BME280;59263;48.160;11.752;2022-08-25T07:51:11;95918.75;;;20.67;87.08
71457;BME280;59263;48.160;11.752;2022-08-25T07:53:36;95922.81;;;20.70;83.56
71457;BME280;59263;48.160;11.752;2022-08-25T07:56:07;95920.78;;;20.78;85.31
71457;BME280;59263;48.160;11.752;2022-08-25T07:58:33;95927.22;;;20.89;84.21
71457;BME280;59263;48.160;11.752;2022-08-25T08:00:58;95919.91;;;21.05;82.74
71457;BME280;59263;48.160;11.752;2022-08-25T08:03:24;95918.66;;;21.20;80.88
71457;BME280;59263;48.160;11.752;2022-08-25T08:05:49;95919.84;;;21.31;79.84
71457;BME280;59263;48.160;11.752;2022-08-25T08:08:15;95919.44;;;21.47;81.45
71457;BME280;59263;48.160;11.752;2022-08-25T08:10:41;95925.66;;;21.60;80.47
71457;BME280;59263;48.160;11.752;2022-08-25T08:13:06;95921.31;;;21.72;78.92
71457;BME280;59263;48.160;11.752;2022-08-25T08:15:35;95928.56;;;21.83;76.69
71457;BME280;59263;48.160;11.752;2022-08-25T08:18:01;95933.66;;;21.78;79.17
71457;BME280;59263;48.160;11.752;2022-08-25T08:20:26;95931.56;;;21.93;77.88
71457;BME280;59263;48.160;11.752;2022-08-25T08:22:53;95921.19;;;21.98;76.77
71457;BME280;59263;48.160;11.752;2022-08-25T08:25:18;95923.94;;;22.17;78.69
71457;BME280;59263;48.160;11.752;2022-08-25T08:27:43;95923.81;;;22.37;77.36
71457;BME280;59263;48.160;11.752;2022-08-25T08:30:10;95915.03;;;22.11;79.82
71457;BME280;59263;48.160;11.752;2022-08-25T08:32:36;95924.53;;;22.12;80.36
71457;BME280;59263;48.160;11.752;2022-08-25T08:35:01;95915.41;;;22.21;81.71
71457;BME280;59263;48.160;11.752;2022-08-25T08:37:26;95919.44;;;22.24;80.76
71457;BME280;59263;48.160;11.752;2022-08-25T08:39:52;95920.59;;;22.28;80.75
71457;BME280;59263;48.160;11.752;2022-08-25T08:50:29;95909.47;;;22.76;78.59
71457;BME280;59263;48.160;11.752;2022-08-25T08:53:10;95896.66;;;22.80;77.17
71457;BME280;59263;48.160;11.752;2022-08-25T08:55:48;95895.13;;;22.90;75.14
71457;BME280;59263;48.160;11.752;2022-08-25T08:58:23;95897.97;;;23.14;72.04
71457;BME280;59263;48.160;11.752;2022-08-25T09:00:53;95894.16;;;23.28;72.41
71457;BME280;59263;48.160;11.752;2022-08-25T09:03:40;95894.59;;;23.43;70.18
71457;BME280;59263;48.160;11.752;2022-08-25T09:06:30;95895.31;;;23.32;71.98
71457;BME280;59263;48.160;11.752;2022-08-25T09:08:58;95886.38;;;23.52;69.19
71457;BME280;59263;48.160;11.752;2022-08-25T09:28:39;95876.00;;;24.41;65.26
71457;BME280;59263;48.160;11.752;2022-08-25T09:31:16;95875.53;;;24.44;65.53
71457;BME280;59263;48.160;11.752;2022-08-25T09:33:43;95867.59;;;24.67;63.34
71457;BME280;59263;48.160;11.752;2022-08-25T09:36:09;95869.31;;;24.97;61.39
71457;BME280;59263;48.160;11.752;2022-08-25T09:38:35;95878.75;;;24.93;61.60
71457;BME280;59263;48.160;11.752;2022-08-25T09:41:01;95873.00;;;24.96;64.15
71457;BME280;59263;48.160;11.752;2022-08-25T09:43:36;95878.75;;;24.93;65.86
71457;BME280;59263;48.160;11.752;2022-08-25T09:49:11;95871.50;;;24.76;60.34
71457;BME280;59263;48.160;11.752;2022-08-25T09:51:38;95868.97;;;24.93;61.58
71457;BME280;59263;48.160;11.752;2022-08-25T09:56:57;95871.25;;;25.01;59.68
71457;BME280;59263;48.160;11.752;2022-08-25T10:01:55;95876.00;;;24.87;61.94
71457;BME280;59263;48.160;11.752;2022-08-25T10:06:52;95861.81;;;25.29;59.15
71457;BME280;59263;48.160;11.752;2022-08-25T10:09:32;95861.44;;;25.66;59.38
71457;BME280;59263;48.160;11.752;2022-08-25T10:12:13;95862.25;;;25.66;59.55
71457;BME280;59263;48.160;11.752;2022-08-25T10:14:39;95858.94;;;25.88;57.76
71457;BME280;59263;48.160;11.752;2022-08-25T10:17:15;95849.84;;;26.12;59.06
71457;BME280;59263;48.160;11.752;2022-08-25T10:19:41;95840.03;;;26.29;56.95
71457;BME280;59263;48.160;11.752;2022-08-25T10:22:26;95837.13;;;26.65;55.76
71457;BME280;59263;48.160;11.752;2022-08-25T10:25:02;95843.38;;;26.75;55.03
71457;BME280;59263;48.160;11.752;2022-08-25T10:30:21;95833.97;;;27.07;53.49
71457;BME280;59263;48.160;11.752;2022-08-25T10:39:21;95835.41;;;27.14;51.71
71457;BME280;59263;48.160;11.752;2022-08-25T10:41:40;95827.97;;;27.60;51.47
71457;BME280;59263;48.160;11.752;2022-08-25T10:47:57;95823.88;;;28.34;49.57
71457;BME280;59263;48.160;11.752;2022-08-25T10:50:33;95825.59;;;27.86;51.10
71457;BME280;59263;48.160;11.752;2022-08-25T10:53:17;95823.50;;;27.66;51.65
71457;BME280;59263;48.160;11.752;2022-08-25T10:58:28;95816.09;;;28.59;49.32
71457;BME280;59263;48.160;11.752;2022-08-25T11:03:55;95815.06;;;27.96;50.21
71457;BME280;59263;48.160;11.752;2022-08-25T11:06:34;95818.97;;;27.17;52.47
71457;BME280;59263;48.160;11.752;2022-08-25T11:09:06;95811.53;;;26.75;52.92
71457;BME280;59263;48.160;11.752;2022-08-25T11:11:39;95820.34;;;26.25;55.35
71457;BME280;59263;48.160;11.752;2022-08-25T11:14:10;95809.16;;;25.90;55.73
71457;BME280;59263;48.160;11.752;2022-08-25T11:19:37;95800.91;;;25.74;60.07
71457;BME280;59263;48.160;11.752;2022-08-25T11:22:34;95799.78;;;25.70;56.50
71457;BME280;59263;48.160;11.752;2022-08-25T11:25:27;95804.47;;;25.80;57.26
71457;BME280;59263;48.160;11.752;2022-08-25T11:30:31;95806.50;;;25.90;56.70
71457;BME280;59263;48.160;11.752;2022-08-25T11:32:57;95803.03;;;26.06;54.17
71457;BME280;59263;48.160;11.752;2022-08-25T11:49:36;95784.34;;;26.68;53.49
71457;BME280;59263;48.160;11.752;2022-08-25T11:55:12;95763.78;;;27.02;52.40
71457;BME280;59263;48.160;11.752;2022-08-25T11:57:41;95771.97;;;26.96;54.76
71457;BME280;59263;48.160;11.752;2022-08-25T12:00:13;95774.97;;;26.83;52.27
71457;BME280;59263;48.160;11.752;2022-08-25T12:02:51;95770.59;;;26.71;52.46
71457;BME280;59263;48.160;11.752;2022-08-25T12:10:14;95768.47;;;26.95;52.28
71457;BME280;59263;48.160;11.752;2022-08-25T12:18:13;95772.78;;;27.72;51.00
71457;BME280;59263;48.160;11.752;2022-08-25T12:23:27;95769.09;;;27.24;50.34
71457;BME280;59263;48.160;11.752;2022-08-25T12:25:54;95770.91;;;26.97;52.06
71457;BME280;59263;48.160;11.752;2022-08-25T12:30:58;95775.78;;;26.44;52.86
71457;BME280;59263;48.160;11.752;2022-08-25T12:33:43;95770.91;;;26.19;52.31
71457;BME280;59263;48.160;11.752;2022-08-25T12:36:26;95777.09;;;26.08;54.53
71457;BME280;59263;48.160;11.752;2022-08-25T12:38:53;95767.38;;;25.97;53.61
71457;BME280;59263;48.160;11.752;2022-08-25T12:41:20;95773.22;;;25.99;54.93
71457;BME280;59263;48.160;11.752;2022-08-25T12:43:49;95771.06;;;25.96;56.29
71457;BME280;59263;48.160;11.752;2022-08-25T12:51:51;95765.88;;;26.40;55.03
71457;BME280;59263;48.160;11.752;2022-08-25T12:54:29;95759.63;;;26.46;55.13
71457;BME280;59263;48.160;11.752;2022-08-25T13:00:04;95766.28;;;26.31;54.50
71457;BME280;59263;48.160;11.752;2022-08-25T13:05:25;95754.81;;;26.09;55.63
71457;BME280;59263;48.160;11.752;2022-08-25T13:08:14;95753.91;;;26.20;55.36
71457;BME280;59263;48.160;11.752;2022-08-25T13:10:51;95752.53;;;26.35;53.68
71457;BME280;59263;48.160;11.752;2022-08-25T13:13:51;95747.72;;;26.31;55.80
71457;BME280;59263;48.160;11.752;2022-08-25T13:16:26;95737.09;;;26.31;57.30
71457;BME280;59263;48.160;11.752;2022-08-25T13:18:53;95745.63;;;26.34;55.49
71457;BME280;59263;48.160;11.752;2022-08-25T13:21:35;95746.59;;;26.27;55.81
71457;BME280;59263;48.160;11.752;2022-08-25T13:24:04;95735.03;;;26.17;55.77
71457;BME280;59263;48.160;11.752;2022-08-25T13:26:33;95737.25;;;26.25;53.47
71457;BME280;59263;48.160;11.752;2022-08-25T13:29:12;95729.56;;;26.23;52.63
71457;BME280;59263;48.160;11.752;2022-08-25T13:31:53;95723.78;;;26.26;53.52
71457;BME280;59263;48.160;11.752;2022-08-25T13:34:23;95720.69;;;26.35;53.54
71457;BME280;59263;48.160;11.752;2022-08-25T13:36:49;95725.03;;;26.41;54.71
71457;BME280;59263;48.160;11.752;2022-08-25T13:39:35;95717.38;;;26.44;54.03
71457;BME280;59263;48.160;11.752;2022-08-25T13:42:03;95727.44;;;26.42;57.58
71457;BME280;59263;48.160;11.752;2022-08-25T13:44:33;95720.69;;;26.35;58.68
71457;BME280;59263;48.160;11.752;2022-08-25T13:47:15;95715.88;;;26.31;54.62
71457;BME280;59263;48.160;11.752;2022-08-25T13:49:43;95719.72;;;26.41;54.67
71457;BME280;59263;48.160;11.752;2022-08-25T13:52:26;95716.50;;;26.39;52.84
71457;BME280;59263;48.160;11.752;2022-08-25T13:54:57;95722.97;;;26.26;55.94
71457;BME280;59263;48.160;11.752;2022-08-25T13:57:25;95717.84;;;26.19;55.63
71457;BME280;59263;48.160;11.752;2022-08-25T13:59:55;95719.28;;;26.10;55.26
71457;BME280;59263;48.160;11.752;2022-08-25T14:05:07;95712.16;;;26.33;54.11
71457;BME280;59263;48.160;11.752;2022-08-25T14:07:33;95713.78;;;26.34;54.48
71457;BME280;59263;48.160;11.752;2022-08-25T14:10:05;95713.44;;;26.47;53.89
71457;BME280;59263;48.160;11.752;2022-08-25T14:17:44;95718.16;;;26.06;54.60
71457;BME280;59263;48.160;11.752;2022-08-25T14:20:20;95720.09;;;25.94;58.02
71457;BME280;59263;48.160;11.752;2022-08-25T14:22:51;95717.41;;;25.77;56.49
71457;BME280;59263;48.160;11.752;2022-08-25T14:25:18;95718.06;;;25.67;56.57
71457;BME280;59263;48.160;11.752;2022-08-25T14:27:43;95714.31;;;25.63;55.34
71457;BME280;59263;48.160;11.752;2022-08-25T14:30:09;95709.69;;;25.58;56.22
71457;BME280;59263;48.160;11.752;2022-08-25T14:32:35;95707.22;;;25.52;56.31
71457;BME280;59263;48.160;11.752;2022-08-25T14:35:00;95712.53;;;25.52;56.61
71457;BME280;59263;48.160;11.752;2022-08-25T14:37:26;95706.09;;;25.48;59.61
71457;BME280;59263;48.160;11.752;2022-08-25T14:39:51;95711.69;;;25.34;57.84
71457;BME280;59263;48.160;11.752;2022-08-25T14:42:18;95709.03;;;25.34;57.46
71457;BME280;59263;48.160;11.752;2022-08-25T14:44:44;95709.19;;;25.28;59.01